Time;durP1;ratioP1;P1;durP2;ratioP2;P2;SDS_P1;SDS_P2;PMS_P1;PMS_P2;Temp;Humidity;BMP_temperature;BMP_pressure;BME280_temperature;BME280_humidity;BME280_pressure;Samples;Min_cycle;Max_cycle;Signal;HPM_P1;HPM_P2
2022/05/20 00:02:06;;;;;;;8.13;4.72;;;20.40;64.60;;;;;;5002589;28;20076;-49
2022/05/20 00:04:33;;;;;;;5.28;4.43;;;20.30;65.00;;;;;;5004663;28;20053;-48
2022/05/20 00:07:00;;;;;;;9.02;3.97;;;20.20;65.30;;;;;;5005131;28;20063;-50
2022/05/20 00:09:28;;;;;;;4.10;3.70;;;20.10;65.60;;;;;;5005696;28;20053;-49
2022/05/20 00:11:55;;;;;;;6.35;4.05;;;20.10;65.80;;;;;;5003236;28;20065;-51
2022/05/20 00:14:24;;;;;;;7.45;4.50;;;20.10;66.10;;;;;;5004876;28;20486;-48
2022/05/20 00:16:52;;;;;;;7.28;4.47;;;20.10;66.20;;;;;;5002860;28;20066;-53
2022/05/20 00:19:19;;;;;;;8.75;4.82;;;20.10;66.20;;;;;;5004012;28;20062;-51
2022/05/20 00:21:46;;;;;;;10.50;4.85;;;20.10;66.30;;;;;;5003658;28;20069;-49
2022/05/20 00:24:14;;;;;;;5.25;4.22;;;20.10;66.30;;;;;;5004460;28;20057;-50
2022/05/20 00:26:41;;;;;;;7.35;3.88;;;20.10;66.20;;;;;;5003446;28;20057;-47
2022/05/20 00:29:09;;;;;;;6.63;3.88;;;20.10;66.30;;;;;;5004437;28;20054;-47
2022/05/20 00:31:37;;;;;;;6.80;3.95;;;20.10;66.40;;;;;;5003761;28;20053;-47
2022/05/20 00:34:05;;;;;;;10.63;5.00;;;20.20;66.70;;;;;;5003645;28;20053;-50
2022/05/20 00:36:33;;;;;;;5.40;3.72;;;20.20;66.70;;;;;;5003324;28;20057;-50
2022/05/20 00:39:00;;;;;;;5.68;3.45;;;20.20;66.60;;;;;;5004550;28;20056;-53
2022/05/20 00:41:27;;;;;;;6.57;4.68;;;20.20;66.40;;;;;;5003621;28;20046;-49
2022/05/20 00:43:55;;;;;;;7.00;5.07;;;20.30;66.50;;;;;;5003171;28;20053;-47
2022/05/20 00:46:25;;;;;;;11.63;5.50;;;20.30;66.30;;;;;;5003135;28;20053;-48
2022/05/20 00:48:59;;;;;;;9.98;5.10;;;20.30;66.30;;;;;;5002932;28;20064;-48
2022/05/20 00:51:30;;;;;;;8.73;4.47;;;20.30;66.30;;;;;;5002627;28;20054;-48
2022/05/20 00:54:01;;;;;;;4.95;4.07;;;20.30;66.10;;;;;;5003982;28;20057;-46
2022/05/20 00:56:35;;;;;;;10.02;5.03;;;20.30;66.10;;;;;;5004328;28;20061;-47
2022/05/20 00:59:05;;;;;;;10.35;4.85;;;20.20;66.20;;;;;;5002180;28;20137;-49
2022/05/20 01:01:34;;;;;;;8.27;4.95;;;20.30;66.20;;;;;;5003035;28;20054;-47
2022/05/20 01:04:05;;;;;;;9.38;5.32;;;20.30;66.20;;;;;;5002971;28;20053;-46
2022/05/20 01:06:33;;;;;;;8.07;4.53;;;20.30;66.30;;;;;;5004406;28;20065;-48
2022/05/20 01:09:00;;;;;;;9.25;4.50;;;20.30;66.20;;;;;;5003639;28;20061;-48
2022/05/20 01:11:28;;;;;;;7.15;4.38;;;20.30;66.30;;;;;;5003336;28;20045;-50
2022/05/20 01:13:55;;;;;;;8.18;4.60;;;20.30;66.30;;;;;;5003206;28;20517;-47
2022/05/20 01:16:23;;;;;;;6.22;4.82;;;20.30;66.20;;;;;;5002463;28;20054;-51
2022/05/20 01:18:53;;;;;;;11.93;5.20;;;20.30;66.10;;;;;;5001648;28;20516;-46
2022/05/20 01:21:22;;;;;;;11.23;5.78;;;20.30;66.30;;;;;;5001573;28;20049;-50
2022/05/20 01:23:50;;;;;;;8.45;5.75;;;20.30;66.40;;;;;;5003070;28;20061;-47
2022/05/20 01:26:18;;;;;;;12.85;5.85;;;20.40;67.30;;;;;;5003501;28;20061;-49
2022/05/20 01:28:45;;;;;;;10.07;6.05;;;20.40;66.50;;;;;;5002435;28;20046;-51
2022/05/20 01:31:15;;;;;;;11.07;6.07;;;20.40;66.50;;;;;;5003292;28;20066;-49
2022/05/20 01:33:45;;;;;;;8.90;6.85;;;20.40;66.60;;;;;;5001089;28;20409;-47
2022/05/20 01:36:17;;;;;;;11.93;7.45;;;20.50;66.90;;;;;;5002082;28;20053;-51
2022/05/20 01:38:46;;;;;;;11.77;7.20;;;20.40;66.90;;;;;;5001198;28;20049;-53
2022/05/20 01:41:18;;;;;;;8.10;6.28;;;20.50;66.80;;;;;;5003048;28;20050;-47
2022/05/20 01:43:53;;;;;;;9.15;6.75;;;20.40;66.90;;;;;;5002404;28;20490;-48
2022/05/20 01:46:34;;;;;;;10.43;6.90;;;20.50;67.10;;;;;;5003204;28;20752;-49
2022/05/20 01:49:24;;;;;;;9.25;6.57;;;20.50;67.10;;;;;;5002179;28;20060;-48
2022/05/20 01:51:56;;;;;;;8.23;6.18;;;20.50;67.10;;;;;;5001944;28;20057;-48
2022/05/20 01:54:31;;;;;;;10.13;7.20;;;20.50;66.80;;;;;;5002457;28;20053;-49
2022/05/20 01:57:08;;;;;;;9.32;6.53;;;20.50;66.90;;;;;;5000691;28;20058;-52
2022/05/20 01:59:39;;;;;;;10.57;6.43;;;20.50;67.10;;;;;;5001881;28;20058;-48
2022/05/20 02:02:12;;;;;;;10.77;5.55;;;20.50;66.90;;;;;;5000405;28;20050;-52
2022/05/20 02:04:45;;;;;;;6.53;4.55;;;20.50;66.80;;;;;;5002152;28;20410;-47
2022/05/20 02:07:17;;;;;;;4.85;4.32;;;20.50;66.70;;;;;;5003497;28;20430;-49
2022/05/20 02:09:50;;;;;;;5.10;4.60;;;20.50;66.70;;;;;;5001060;28;20073;-49
2022/05/20 02:12:22;;;;;;;5.80;4.47;;;20.50;66.60;;;;;;5000672;28;20061;-48
2022/05/20 02:14:56;;;;;;;3.80;3.35;;;20.50;66.40;;;;;;5002838;28;20064;-46
2022/05/20 02:17:27;;;;;;;6.15;4.50;;;20.50;66.30;;;;;;5000597;28;20054;-47
2022/05/20 02:20:00;;;;;;;6.10;4.85;;;20.50;66.20;;;;;;5001869;28;20699;-47
2022/05/20 02:22:32;;;;;;;7.00;4.85;;;20.60;66.30;;;;;;5002535;28;20536;-47
2022/05/20 02:25:05;;;;;;;8.52;4.72;;;20.60;66.30;;;;;;5000884;28;20584;-48
2022/05/20 02:27:40;;;;;;;7.03;4.72;;;20.60;66.20;;;;;;5001989;28;20501;-48
2022/05/20 02:30:11;;;;;;;6.00;4.97;;;20.60;66.30;;;;;;5001619;28;20046;-48
2022/05/20 02:33:21;;;;;;;6.07;4.68;;;20.60;66.30;;;;;;5000925;28;20425;-47
2022/05/20 02:35:49;;;;;;;5.75;4.55;;;20.60;66.40;;;;;;5002797;28;20057;-48
2022/05/20 02:38:19;;;;;;;6.32;5.35;;;20.60;66.10;;;;;;5000160;28;20061;-49
2022/05/20 02:40:50;;;;;;;7.07;5.22;;;20.60;66.20;;;;;;5002554;28;20680;-48
2022/05/20 02:43:20;;;;;;;12.80;5.55;;;20.60;66.30;;;;;;5002134;28;20062;-48
2022/05/20 02:45:50;;;;;;;8.77;6.13;;;20.60;66.30;;;;;;5002440;28;20069;-49
2022/05/20 02:48:20;;;;;;;9.93;6.00;;;20.60;66.30;;;;;;5002447;28;20532;-48
2022/05/20 02:50:49;;;;;;;7.40;6.22;;;20.60;66.30;;;;;;5002596;28;20779;-48
2022/05/20 02:53:17;;;;;;;7.30;5.72;;;20.60;66.30;;;;;;4997019;28;20429;-49
2022/05/20 02:55:46;;;;;;;8.55;6.80;;;20.60;66.30;;;;;;5001401;28;20407;-48
2022/05/20 03:06:27;;;;;;;7.63;6.63;;;20.60;66.20;;;;;;5008016;28;20080;-47
2022/05/20 03:08:55;;;;;;;10.18;7.43;;;20.70;66.20;;;;;;5004051;28;20073;-47
2022/05/20 03:11:23;;;;;;;6.90;6.20;;;20.70;66.20;;;;;;5004269;28;20050;-52
2022/05/20 03:13:50;;;;;;;13.20;9.10;;;20.70;66.20;;;;;;5004078;28;20064;-48
2022/05/20 03:16:19;;;;;;;11.90;7.55;;;20.70;66.20;;;;;;5005923;28;20053;-50
2022/05/20 03:18:47;;;;;;;8.45;6.72;;;20.70;66.20;;;;;;5004342;28;20426;-50
2022/05/20 03:21:14;;;;;;;11.10;7.93;;;20.70;66.20;;;;;;5006004;28;20057;-47
2022/05/20 03:23:41;;;;;;;22.20;14.98;;;20.70;66.20;;;;;;5009621;28;20064;-49
2022/05/20 03:26:09;;;;;;;24.35;14.10;;;20.70;66.20;;;;;;5027436;28;20053;-51
2022/05/20 03:31:13;;;;;;;15.07;9.77;;;20.70;66.20;;;;;;5295622;22;20454;-89
2022/05/20 03:33:43;;;;;;;12.77;10.25;;;20.80;66.20;;;;;;5008206;28;20546;-89
2022/05/20 03:36:21;;;;;;;19.70;14.52;;;20.80;66.20;;;;;;5009842;28;20080;-88
2022/05/20 03:39:11;;;;;;;18.42;13.63;;;20.80;66.10;;;;;;5007955;28;20060;-88
2022/05/20 03:41:39;;;;;;;21.10;15.00;;;20.80;66.20;;;;;;5006623;28;20056;-88
2022/05/20 03:44:08;;;;;;;21.95;16.58;;;20.80;66.20;;;;;;5011380;28;20050;-88
2022/05/20 03:46:41;;;;;;;23.75;16.83;;;20.80;66.30;;;;;;4992319;28;20512;-90
2022/05/20 03:49:12;;;;;;;22.88;15.43;;;20.80;66.30;;;;;;5049848;22;20041;-89
2022/05/20 03:51:40;;;;;;;18.90;12.50;;;20.80;66.30;;;;;;5065847;22;20723;-44
2022/05/20 03:54:08;;;;;;;22.48;16.27;;;20.80;66.20;;;;;;5026079;28;20052;-47
2022/05/20 03:56:35;;;;;;;21.52;15.65;;;20.80;66.20;;;;;;5026554;28;20852;-47
2022/05/20 03:59:03;;;;;;;34.85;21.58;;;20.80;66.10;;;;;;5025781;28;20409;-44
2022/05/20 04:04:17;;;;;;;26.60;19.52;;;20.80;66.20;;;;;;5030356;28;20075;-44
2022/05/20 04:06:44;;;;;;;33.63;22.88;;;20.90;66.20;;;;;;5025947;28;20053;-46
2022/05/20 04:09:12;;;;;;;27.48;19.27;;;20.90;66.20;;;;;;5027730;28;20492;-44
2022/05/20 04:11:39;;;;;;;26.92;19.80;;;20.90;66.20;;;;;;5026860;28;20048;-44
2022/05/20 04:14:07;;;;;;;32.53;21.80;;;20.80;66.10;;;;;;5026948;28;20053;-45
2022/05/20 04:16:35;;;;;;;31.80;20.75;;;20.90;66.20;;;;;;5026612;28;20056;-44
2022/05/20 04:19:02;;;;;;;39.17;26.05;;;20.90;66.20;;;;;;5026362;28;20057;-44
2022/05/20 04:21:31;;;;;;;40.95;23.70;;;20.90;66.20;;;;;;5024885;28;20068;-45
2022/05/20 04:23:58;;;;;;;33.58;22.50;;;20.90;66.30;;;;;;5025153;28;20049;-45
2022/05/20 04:26:26;;;;;;;28.48;20.00;;;20.90;66.20;;;;;;5025832;28;20511;-48
2022/05/20 04:28:53;;;;;;;33.05;21.65;;;20.90;66.10;;;;;;5027358;28;20415;-45
2022/05/20 04:31:21;;;;;;;36.47;23.25;;;20.90;66.10;;;;;;5025519;28;20064;-44
2022/05/20 04:33:49;;;;;;;30.88;19.70;;;20.90;66.10;;;;;;5022820;28;20056;-44
2022/05/20 04:36:16;;;;;;;37.95;23.50;;;20.90;66.10;;;;;;5023310;28;20076;-44
2022/05/20 04:38:45;;;;;;;34.28;20.20;;;20.90;66.10;;;;;;5025267;28;20061;-47
2022/05/20 04:46:57;;;;;;;37.22;19.92;;;20.90;65.90;;;;;;5030336;28;20060;-47
2022/05/20 04:49:27;;;;;;;46.60;23.27;;;21.00;65.90;;;;;;5023989;28;20053;-44
2022/05/20 04:51:55;;;;;;;41.60;22.20;;;20.90;65.90;;;;;;5024913;28;20061;-46
2022/05/20 04:57:10;;;;;;;33.28;18.73;;;21.00;66.00;;;;;;5031477;28;20064;-44
2022/05/20 04:59:38;;;;;;;38.30;19.67;;;20.90;65.80;;;;;;5023502;28;20061;-47
2022/05/20 05:02:07;;;;;;;32.55;18.13;;;21.00;65.90;;;;;;5024224;28;20053;-45
2022/05/20 05:04:34;;;;;;;42.60;21.80;;;21.00;65.90;;;;;;5024552;28;20100;-44
2022/05/20 05:07:02;;;;;;;42.13;20.30;;;21.00;66.60;;;;;;5024898;28;20850;-44
2022/05/20 05:09:31;;;;;;;41.58;20.75;;;21.00;65.80;;;;;;5024271;28;20049;-43
2022/05/20 05:11:58;;;;;;;43.10;21.10;;;21.00;65.80;;;;;;5024248;28;20252;-44
2022/05/20 05:14:26;;;;;;;44.88;21.75;;;21.00;65.70;;;;;;5025605;28;20060;-44
2022/05/20 05:16:53;;;;;;;51.55;24.20;;;21.00;65.70;;;;;;5022983;28;20060;-46
2022/05/20 05:19:20;;;;;;;44.80;21.60;;;21.00;65.80;;;;;;5021456;28;20721;-44
2022/05/20 05:21:48;;;;;;;47.67;23.05;;;21.00;65.80;;;;;;5024066;28;20069;-44
2022/05/20 05:24:16;;;;;;;42.70;21.35;;;21.00;65.90;;;;;;5023887;28;20397;-45
2022/05/20 05:26:45;;;;;;;43.50;21.75;;;21.00;66.00;;;;;;5023081;28;20390;-50
2022/05/20 05:29:13;;;;;;;46.35;21.15;;;21.00;66.00;;;;;;5023478;28;20511;-48
2022/05/20 05:31:40;;;;;;;45.20;20.25;;;21.00;65.90;;;;;;5021705;28;20054;-49
2022/05/20 05:34:10;;;;;;;55.78;23.27;;;21.00;65.90;;;;;;5023493;28;20049;-48
2022/05/20 05:36:37;;;;;;;45.10;21.95;;;21.00;65.80;;;;;;5023996;28;20061;-49
2022/05/20 05:39:04;;;;;;;43.90;22.05;;;21.00;65.90;;;;;;5023274;28;20057;-47
2022/05/20 05:41:32;;;;;;;44.92;22.15;;;21.10;65.80;;;;;;5023685;28;20049;-48
2022/05/20 05:44:03;;;;;;;42.67;20.30;;;21.10;65.70;;;;;;5025495;28;20045;-49
2022/05/20 05:46:31;;;;;;;41.28;20.00;;;21.10;65.70;;;;;;5022882;28;20053;-49
2022/05/20 05:48:58;;;;;;;45.67;21.85;;;21.10;65.70;;;;;;5022228;28;20436;-49
2022/05/20 05:51:26;;;;;;;35.72;18.58;;;21.10;65.70;;;;;;5023654;28;20069;-51
2022/05/20 05:53:56;;;;;;;37.97;18.27;;;21.20;65.80;;;;;;5022554;28;20485;-49
2022/05/20 05:56:24;;;;;;;39.95;20.73;;;21.10;65.70;;;;;;5022957;28;20057;-51
2022/05/20 05:58:51;;;;;;;32.47;18.48;;;21.20;65.80;;;;;;5023686;28;20520;-48
2022/05/20 06:01:20;;;;;;;37.08;19.15;;;21.20;65.90;;;;;;5023235;28;20049;-50
2022/05/20 06:03:47;;;;;;;42.15;22.30;;;21.20;66.00;;;;;;5022143;28;20733;-54
2022/05/20 06:06:15;;;;;;;36.25;20.60;;;21.30;65.80;;;;;;5025821;28;20057;-50
2022/05/20 06:08:42;;;;;;;33.50;18.33;;;21.30;65.50;;;;;;5023247;28;20492;-48
2022/05/20 06:11:10;;;;;;;31.00;17.08;;;21.40;65.20;;;;;;5022684;28;20057;-48
2022/05/20 06:13:37;;;;;;;31.85;18.40;;;21.40;64.90;;;;;;5022761;28;20057;-48
2022/05/20 06:16:05;;;;;;;27.95;16.00;;;21.40;64.70;;;;;;5023431;28;20053;-48
2022/05/20 06:18:34;;;;;;;27.88;15.80;;;21.40;64.70;;;;;;5022981;28;20054;-48
2022/05/20 06:21:04;;;;;;;24.20;15.07;;;21.50;64.90;;;;;;5023369;28;20049;-49
2022/05/20 06:23:31;;;;;;;25.85;15.50;;;21.50;64.90;;;;;;5022447;28;20049;-52
2022/05/20 06:25:59;;;;;;;23.15;13.80;;;21.50;65.60;;;;;;5022270;28;20469;-49
2022/05/20 06:28:26;;;;;;;21.35;14.18;;;21.60;65.00;;;;;;5021719;28;20053;-49
2022/05/20 06:30:54;;;;;;;21.35;13.75;;;21.60;64.90;;;;;;5022386;28;20049;-48
2022/05/20 06:33:21;;;;;;;21.45;13.98;;;21.70;65.10;;;;;;5020720;28;20056;-51
2022/05/20 06:41:20;;;;;;;22.88;14.30;;;21.90;64.70;;;;;;5027339;28;20064;-50
2022/05/20 06:43:48;;;;;;;22.63;13.40;;;22.00;64.40;;;;;;5021900;28;20408;-47
2022/05/20 06:46:16;;;;;;;18.63;12.85;;;22.00;64.20;;;;;;5021746;28;20053;-46
2022/05/20 06:48:47;;;;;;;18.40;13.75;;;22.10;64.20;;;;;;5020993;28;20057;-47
2022/05/20 06:51:18;;;;;;;16.95;12.70;;;22.10;63.80;;;;;;5022904;28;20515;-48
2022/05/20 06:53:46;;;;;;;15.65;12.52;;;22.20;63.70;;;;;;5023448;28;20045;-47
2022/05/20 06:56:16;;;;;;;18.25;12.10;;;22.20;63.60;;;;;;5022849;28;20079;-48
2022/05/20 06:58:44;;;;;;;15.98;12.45;;;22.30;63.40;;;;;;5024017;28;20056;-46
2022/05/20 07:01:11;;;;;;;16.15;12.30;;;22.40;63.30;;;;;;5022177;28;20057;-47
2022/05/20 07:03:39;;;;;;;18.83;13.73;;;22.40;63.30;;;;;;5021051;28;20627;-49
2022/05/20 07:06:08;;;;;;;14.55;11.75;;;22.40;62.80;;;;;;5021623;28;20050;-47
2022/05/20 07:08:37;;;;;;;16.83;12.65;;;22.50;62.70;;;;;;5021930;28;20572;-49
2022/05/20 07:11:05;;;;;;;13.35;10.75;;;22.50;62.30;;;;;;5018141;28;20064;-49
2022/05/20 07:13:33;;;;;;;14.43;11.98;;;22.60;62.30;;;;;;5019239;28;20049;-46
2022/05/20 07:16:01;;;;;;;16.20;11.73;;;22.60;62.00;;;;;;5022648;28;20053;-47
2022/05/20 07:18:29;;;;;;;15.88;12.35;;;22.70;62.00;;;;;;5020309;28;20059;-50
2022/05/20 07:20:57;;;;;;;15.13;11.02;;;22.70;61.80;;;;;;5024377;28;20400;-49
2022/05/20 07:23:26;;;;;;;14.20;11.77;;;22.70;61.80;;;;;;5022330;28;20049;-48
2022/05/20 07:25:55;;;;;;;15.32;11.15;;;22.80;61.50;;;;;;5021517;28;20496;-49
2022/05/20 07:28:26;;;;;;;14.45;11.23;;;22.80;61.30;;;;;;5021644;28;20080;-47
2022/05/20 07:30:53;;;;;;;14.27;11.05;;;22.80;61.30;;;;;;5022468;28;20053;-49
2022/05/20 07:33:22;;;;;;;18.77;13.05;;;22.80;61.10;;;;;;5020987;28;20053;-47
2022/05/20 07:35:52;;;;;;;16.35;12.18;;;22.90;61.30;;;;;;5021475;28;20057;-51
2022/05/20 07:38:20;;;;;;;15.68;12.80;;;22.80;61.20;;;;;;5020744;28;20057;-47
2022/05/20 07:40:47;;;;;;;16.70;12.18;;;22.90;61.50;;;;;;5021841;28;20057;-47
2022/05/20 07:43:16;;;;;;;16.40;11.00;;;22.90;61.80;;;;;;5022313;28;20053;-46
2022/05/20 07:45:44;;;;;;;15.98;12.02;;;22.90;61.60;;;;;;5022928;28;20057;-48
2022/05/20 07:48:11;;;;;;;17.75;12.15;;;23.00;61.80;;;;;;5019723;28;20080;-47
2022/05/20 07:50:43;;;;;;;14.32;11.23;;;23.00;62.00;;;;;;5022438;28;20053;-46
2022/05/20 07:53:31;;;;;;;14.38;11.25;;;23.10;62.00;;;;;;5020001;28;20064;-49
2022/05/20 07:56:02;;;;;;;13.88;11.00;;;23.10;62.10;;;;;;5024042;28;20046;-48
2022/05/20 07:58:34;;;;;;;15.13;10.63;;;23.20;61.80;;;;;;5025562;28;20442;-50
2022/05/20 08:01:03;;;;;;;13.75;10.32;;;23.20;61.60;;;;;;5026558;28;20054;-49
2022/05/20 08:06:18;;;;;;;13.88;9.60;;;23.30;61.10;;;;;;5030484;28;20056;-47
2022/05/20 08:08:45;;;;;;;14.25;9.45;;;23.30;61.00;;;;;;5023774;28;20713;-49
2022/05/20 08:11:13;;;;;;;12.73;8.82;;;23.40;61.50;;;;;;5024246;28;20077;-46
2022/05/20 08:13:42;;;;;;;10.35;8.10;;;23.40;61.70;;;;;;5024730;28;20060;-51
2022/05/20 08:16:10;;;;;;;11.02;7.88;;;23.40;61.40;;;;;;5025306;28;20056;-48
2022/05/20 08:18:37;;;;;;;11.68;8.40;;;23.40;61.60;;;;;;5024012;28;20068;-50
2022/05/20 08:21:05;;;;;;;11.02;7.97;;;23.50;61.80;;;;;;5024968;28;20064;-51
2022/05/20 08:23:33;;;;;;;8.82;6.90;;;23.60;61.10;;;;;;5024555;28;20515;-50
2022/05/20 08:26:00;;;;;;;10.75;7.53;;;23.60;60.60;;;;;;5024976;28;20061;-50
2022/05/20 08:28:27;;;;;;;8.07;6.75;;;23.60;60.40;;;;;;5025017;28;20064;-49
2022/05/20 08:30:56;;;;;;;12.20;7.10;;;23.70;60.50;;;;;;5025694;28;20052;-48
2022/05/20 08:33:23;;;;;;;11.50;7.28;;;23.70;60.50;;;;;;5023185;28;20053;-52
2022/05/20 08:35:51;;;;;;;10.50;7.40;;;23.70;60.40;;;;;;5023452;28;20636;-50
2022/05/20 08:38:21;;;;;;;8.40;6.60;;;23.90;60.50;;;;;;5023602;28;20508;-49
2022/05/20 08:40:50;;;;;;;9.32;6.50;;;23.90;60.70;;;;;;5024455;28;20057;-47
2022/05/20 08:43:19;;;;;;;11.02;6.05;;;24.00;60.70;;;;;;5023364;28;20413;-48
2022/05/20 08:45:50;;;;;;;6.88;5.53;;;24.10;60.70;;;;;;5024828;28;20056;-47
2022/05/20 08:48:20;;;;;;;7.75;6.50;;;24.10;60.20;;;;;;5022945;28;20053;-50
2022/05/20 08:50:50;;;;;;;8.50;6.50;;;24.20;60.40;;;;;;5022764;28;20052;-47
2022/05/20 08:53:22;;;;;;;5.53;4.75;;;24.30;59.90;;;;;;4984946;28;20057;-49
2022/05/20 08:55:50;;;;;;;6.03;4.65;;;24.30;59.70;;;;;;4984907;28;20073;-48
2022/05/20 08:58:21;;;;;;;7.65;5.10;;;24.40;59.50;;;;;;4984530;28;20399;-50
2022/05/20 09:00:48;;;;;;;10.73;5.55;;;24.40;59.40;;;;;;4986755;28;20053;-48
2022/05/20 09:03:16;;;;;;;6.28;5.07;;;24.50;59.30;;;;;;4985216;28;20482;-47
2022/05/20 09:05:46;;;;;;;7.80;6.13;;;24.50;59.10;;;;;;4984339;28;20504;-48
2022/05/20 09:08:28;;;;;;;8.75;6.03;;;24.60;58.80;;;;;;4983995;28;20065;-49
2022/05/20 09:10:59;;;;;;;8.60;5.45;;;24.70;58.70;;;;;;4986797;28;20137;-48
2022/05/20 09:16:12;;;;;;;12.18;6.45;;;24.70;58.60;;;;;;4983561;28;20402;-47
2022/05/20 09:18:41;;;;;;;10.25;6.60;;;24.80;58.80;;;;;;4981927;28;20528;-49
2022/05/20 09:21:25;;;;;;;9.65;6.68;;;24.80;58.70;;;;;;4980584;28;20054;-52
2022/05/20 09:23:55;;;;;;;8.88;6.50;;;24.80;58.90;;;;;;4984245;28;20391;-48
2022/05/20 09:26:25;;;;;;;9.60;6.13;;;24.90;58.50;;;;;;4982999;28;20054;-48
2022/05/20 09:28:57;;;;;;;10.57;7.10;;;25.00;58.60;;;;;;4983826;28;20507;-48
2022/05/20 09:31:32;;;;;;;8.25;6.05;;;25.00;59.10;;;;;;4982658;28;20065;-47
2022/05/20 09:34:12;;;;;;;10.18;6.15;;;25.00;59.10;;;;;;4982277;28;20054;-47
2022/05/20 09:36:46;;;;;;;7.00;5.80;;;25.00;58.90;;;;;;4983713;28;20060;-48
2022/05/20 09:39:16;;;;;;;;;;;25.10;58.40;;;;;;4984394;28;20054;-49
2022/05/20 09:41:52;;;;;;;11.48;5.10;;;25.10;58.50;;;;;;4981439;28;20312;-47
2022/05/20 09:44:23;;;;;;;7.18;5.00;;;25.20;58.50;;;;;;4982579;28;20081;-48
2022/05/20 09:46:54;;;;;;;7.00;5.35;;;25.20;58.30;;;;;;4984024;28;20494;-48
2022/05/20 09:49:37;;;;;;;8.18;4.80;;;25.20;58.00;;;;;;4982877;28;20054;-51
2022/05/20 09:52:18;;;;;;;8.80;5.32;;;25.30;57.60;;;;;;5004700;28;20064;-49
2022/05/20 09:54:49;;;;;;;7.45;5.60;;;25.30;58.10;;;;;;5022637;28;20489;-49
2022/05/20 09:57:23;;;;;;;7.60;4.63;;;25.30;57.80;;;;;;5021881;28;20056;-47
2022/05/20 09:59:57;;;;;;;5.80;4.95;;;25.40;57.80;;;;;;5023513;28;20072;-52
2022/05/20 10:02:31;;;;;;;9.80;5.00;;;25.40;57.60;;;;;;5022031;28;20068;-49
2022/05/20 10:05:07;;;;;;;5.33;4.60;;;25.40;57.50;;;;;;5023498;28;20045;-47
2022/05/20 10:08:00;;;;;;;9.35;5.35;;;25.40;57.40;;;;;;5022266;28;21017;-51
2022/05/20 10:10:36;;;;;;;9.55;5.60;;;25.40;57.20;;;;;;5022813;28;20067;-50
2022/05/20 10:13:08;;;;;;;6.45;5.30;;;25.40;56.50;;;;;;5020546;28;20045;-51
2022/05/20 10:15:42;;;;;;;8.45;4.90;;;25.40;56.90;;;;;;5021497;28;20052;-50
2022/05/20 10:18:21;;;;;;;10.25;5.80;;;25.50;57.10;;;;;;5018860;28;20421;-49
2022/05/20 10:20:57;;;;;;;6.93;5.63;;;25.50;56.60;;;;;;5019669;28;20509;-47
2022/05/20 10:23:33;;;;;;;9.18;5.15;;;25.50;57.10;;;;;;5020090;28;20062;-47
2022/05/20 10:26:06;;;;;;;10.10;5.70;;;25.60;57.10;;;;;;5022550;28;20064;-48
2022/05/20 10:34:21;;;;;;;9.10;4.80;;;25.80;57.50;;;;;;5027053;28;20076;-49
2022/05/20 10:36:59;;;;;;;7.40;5.47;;;25.90;57.00;;;;;;5022483;28;20424;-49
2022/05/20 10:39:52;;;;;;;9.60;5.72;;;25.90;56.60;;;;;;5022185;28;20057;-51
2022/05/20 10:42:36;;;;;;;10.52;5.50;;;26.00;56.60;;;;;;5021334;28;20069;-47
2022/05/20 10:48:38;;;;;;;9.07;4.50;;;26.10;56.60;;;;;;5026880;28;20295;-49
2022/05/20 10:51:26;;;;;;;8.80;5.90;;;26.20;56.00;;;;;;5021670;28;20053;-49
2022/05/20 10:54:07;;;;;;;8.30;4.90;;;26.20;55.80;;;;;;5009635;28;20397;-48
2022/05/20 10:56:48;;;;;;;13.60;5.53;;;26.20;55.80;;;;;;5021615;28;20054;-51
2022/05/20 10:59:44;;;;;;;7.97;4.95;;;26.20;55.50;;;;;;5020322;28;20381;-48
2022/05/20 11:02:37;;;;;;;8.52;5.10;;;26.20;55.90;;;;;;5020558;28;20057;-48
2022/05/20 11:05:17;;;;;;;14.02;5.50;;;26.30;55.40;;;;;;5021044;28;20492;-49
2022/05/20 11:08:04;;;;;;;5.28;4.30;;;26.40;54.90;;;;;;5021692;28;20062;-47
2022/05/20 11:10:57;;;;;;;6.60;5.00;;;26.50;54.90;;;;;;5021722;28;20076;-49
2022/05/20 11:13:39;;;;;;;8.38;4.72;;;26.50;55.20;;;;;;5021668;28;20583;-49
2022/05/20 11:16:18;;;;;;;9.18;4.38;;;26.50;55.20;;;;;;5021825;28;20054;-47
2022/05/20 11:19:06;;;;;;;9.15;4.90;;;26.60;54.40;;;;;;5020537;28;20061;-47
2022/05/20 11:21:56;;;;;;;5.65;4.57;;;26.70;54.50;;;;;;5022043;28;20087;-50
2022/05/20 11:24:53;;;;;;;8.65;4.57;;;26.70;54.30;;;;;;5021244;28;20057;-49
2022/05/20 11:27:45;;;;;;;10.23;4.68;;;26.70;54.60;;;;;;5020540;28;20057;-47
2022/05/20 11:30:24;;;;;;;6.18;4.47;;;26.80;54.50;;;;;;5024886;28;20060;-49
2022/05/20 11:33:24;;;;;;;16.48;8.73;;;26.80;54.10;;;;;;5024162;28;20072;-48
2022/05/20 11:36:15;;;;;;;6.40;4.78;;;26.80;54.10;;;;;;5024121;28;20507;-48
2022/05/20 11:38:56;;;;;;;4.53;3.95;;;26.80;54.10;;;;;;5021728;28;20073;-52
2022/05/20 11:41:36;;;;;;;8.05;4.82;;;26.80;54.00;;;;;;5024558;28;20054;-50
2022/05/20 11:44:26;;;;;;;7.05;4.93;;;26.70;54.10;;;;;;5024347;28;20068;-49
2022/05/20 11:47:12;;;;;;;7.55;4.78;;;26.70;54.00;;;;;;5024900;28;20045;-48
2022/05/20 11:50:02;;;;;;;10.32;4.95;;;26.70;54.10;;;;;;5024839;28;20053;-50
2022/05/20 11:52:45;;;;;;;8.38;4.88;;;26.70;54.20;;;;;;5024293;28;20064;-47
2022/05/20 11:55:20;;;;;;;11.40;5.00;;;26.60;53.90;;;;;;5024035;28;20060;-49
2022/05/20 11:57:51;;;;;;;8.30;5.35;;;26.60;54.20;;;;;;5023950;28;20060;-47
2022/05/20 12:00:21;;;;;;;6.75;4.97;;;26.60;54.20;;;;;;5023697;28;20058;-51
2022/05/20 12:02:55;;;;;;;7.32;5.35;;;26.60;54.30;;;;;;5018656;28;20057;-48
2022/05/20 12:05:26;;;;;;;10.68;4.97;;;26.60;54.20;;;;;;5025961;28;20053;-47
2022/05/20 12:07:54;;;;;;;9.18;6.03;;;26.60;54.40;;;;;;5024059;28;20064;-49
2022/05/20 12:10:43;;;;;;;12.07;5.53;;;26.60;54.50;;;;;;5022803;28;20053;-48
2022/05/20 12:13:15;;;;;;;8.52;5.10;;;26.60;54.40;;;;;;5024557;28;20049;-51
2022/05/20 12:15:45;;;;;;;9.00;5.13;;;26.70;54.70;;;;;;5025077;28;20049;-49
2022/05/20 12:24:15;;;;;;;9.15;5.57;;;26.70;54.60;;;;;;5024998;28;20068;-48
2022/05/20 12:26:51;;;;;;;7.35;5.30;;;26.70;54.40;;;;;;5024909;28;20543;-49
2022/05/20 12:29:55;;;;;;;6.85;5.07;;;26.70;54.40;;;;;;5023557;28;20061;-48
2022/05/20 12:32:44;;;;;;;12.53;5.40;;;26.60;54.40;;;;;;5022591;28;20254;-47
2022/05/20 12:35:16;;;;;;;7.00;5.28;;;26.60;54.40;;;;;;5014600;28;20053;-50
2022/05/20 12:38:22;;;;;;;8.27;5.20;;;26.60;54.80;;;;;;5025780;28;20524;-49
2022/05/20 12:41:00;;;;;;;7.03;5.35;;;26.70;55.20;;;;;;5022347;28;20485;-50
2022/05/20 12:43:53;;;;;;;9.25;5.82;;;26.70;55.20;;;;;;5023619;28;20060;-51
2022/05/20 12:47:08;;;;;;;9.60;4.90;;;26.70;55.30;;;;;;5016130;28;20056;-48
2022/05/20 12:49:36;;;;;;;;;;;26.70;55.60;;;;;;4964851;28;20059;-47
2022/05/20 12:52:12;;;;;;;6.57;4.90;;;26.80;55.50;;;;;;4962206;28;19930;-48
2022/05/20 12:54:42;;;;;;;8.48;5.68;;;26.90;55.20;;;;;;4993485;28;20053;-47
2022/05/20 12:57:13;;;;;;;10.55;5.70;;;26.90;55.10;;;;;;5024437;28;20049;-46
2022/05/20 12:59:40;;;;;;;12.25;6.00;;;27.00;54.90;;;;;;5024680;28;20060;-52
2022/05/20 13:02:13;;;;;;;10.63;5.93;;;27.00;55.00;;;;;;5021550;28;20045;-49
2022/05/20 13:04:45;;;;;;;8.27;5.70;;;26.90;54.40;;;;;;5024661;28;20060;-50
2022/05/20 13:07:19;;;;;;;6.25;5.00;;;27.00;54.40;;;;;;5023491;28;20061;-48
2022/05/20 13:09:48;;;;;;;6.70;5.10;;;26.90;54.60;;;;;;5024997;28;20400;-48
2022/05/20 13:12:20;;;;;;;7.95;4.65;;;26.90;54.70;;;;;;5024262;28;20343;-48
2022/05/20 13:14:58;;;;;;;7.20;5.47;;;26.90;54.90;;;;;;5024993;28;20054;-49
2022/05/20 13:17:25;;;;;;;10.82;6.40;;;26.90;55.10;;;;;;5022825;28;20065;-48
2022/05/20 13:19:56;;;;;;;7.40;5.43;;;26.90;55.00;;;;;;5024039;28;20061;-47
2022/05/20 13:22:28;;;;;;;9.00;5.65;;;26.80;54.80;;;;;;5022279;28;20060;-52
2022/05/20 13:24:58;;;;;;;8.20;4.85;;;26.80;55.00;;;;;;5022645;28;20485;-49
2022/05/20 13:27:26;;;;;;;12.57;5.70;;;26.70;54.70;;;;;;5024869;28;20056;-49
2022/05/20 13:29:55;;;;;;;11.65;6.28;;;26.70;54.90;;;;;;5023558;28;20052;-47
2022/05/20 13:32:33;;;;;;;13.43;6.15;;;26.70;55.10;;;;;;5022749;28;20413;-49
2022/05/20 13:35:02;;;;;;;7.70;4.97;;;26.60;55.20;;;;;;5022795;28;20053;-48
2022/05/20 13:37:36;;;;;;;9.48;5.78;;;26.60;55.40;;;;;;5022619;28;20060;-49
2022/05/20 13:40:12;;;;;;;10.43;6.10;;;26.60;55.50;;;;;;5025938;28;20409;-47
2022/05/20 13:42:45;;;;;;;10.40;6.30;;;26.60;55.60;;;;;;5023359;28;20056;-50
2022/05/20 13:45:14;;;;;;;8.02;6.00;;;26.60;55.90;;;;;;5023717;28;20057;-51
2022/05/20 13:50:28;;;;;;;9.38;6.25;;;26.60;56.00;;;;;;5028495;28;20060;-49
2022/05/20 13:52:59;;;;;;;8.50;6.10;;;26.60;56.40;;;;;;5019914;28;20069;-50
2022/05/20 13:55:32;;;;;;;7.55;5.82;;;26.60;56.70;;;;;;5024070;28;20424;-52